Terminal Aerodrome Forecast
Issued by NWS

Home | Current Version | Previous Version | Text Only | Print | Product List | Glossary On
Versions: 1 2 3 4 5 6 7 8 9 10 11 12 13 14 15 16 17 18 19 20 21 22 23 24 25 26 27 28 29 30 31
000
FTUS45 KGJT 020541
TAFEGE
TAF
KEGE 020541Z 0206/0306 06005KT P6SM FEW110 SCT200
     FM021000 00000KT P6SM FEW200
     FM021900 23005KT P6SM FEW100
     FM022100 23012G22KT P6SM VCTS SCT100CB BKN150
     FM030200 13005KT P6SM VCSH SCT100 BKN150
      AMD LTD TO CLD VIS AND WIND TIL 021300=

USA.gov is the U.S. government's official web portal to all federal, state and local government web resources and services.